Flight Track Log - Related Links

Times and Time Zones

All times are in EDT time to prevent confusion due to time zone crossing. See the CCA1327 flight status page for this flight to view local times or setup timezone preferences in your user account.

Time Position Orientation Groundspeed Altitude Reporting Facility
EDT Latitude Longitude Course Direction KTS MPH feet Rate Location/Type
Fri 03:18:27 AM 40.0820 116.5960 355° North 166 191 1,200  Level FlightAware ADS-B
Fri 03:18:52 AM 40.1000 116.5940 355° North 166 191 1,200 1,662 Level FlightAware ADS-B
Fri 03:19:32 AM 40.1000 116.5940 355° North 166 191 3,000 2,471 Climbing FlightAware ADS-B
Fri 03:20:17 AM 40.0820 116.5960 175° South 157 181 4,700 1,938 Climbing FlightAware ADS-B
Fri 03:21:42 AM 40.1080 116.5870 345° North 265 305 7,200 2,749 Climbing FlightAware ADS-B
Fri 03:24:00 AM 39.8181 116.5177 190° South  Level Estimated
Fri 03:24:52 AM 40.3740 116.3110 190° South 288 331 17,300  Level FlightAware ADS-B
Fri 03:25:47 AM 40.3760 116.2280 272° West 290 334 17,900 2,147 Climbing FlightAware ADS-B
Fri 03:26:27 AM 40.3610 116.1480 256° West 301 346 20,700 2,850 Climbing FlightAware ADS-B
Fri 03:27:07 AM 40.3350 116.0780 244° Southwest 321 369 21,700 1,059 Climbing FlightAware ADS-B
Fri 03:27:52 AM 40.3070 116.0040 244° Southwest 349 402 22,200 333 Climbing FlightAware ADS-B
Fri 03:28:37 AM 40.2790 115.9290 244° Southwest 349 402 22,200  Level FlightAware ADS-B
Fri 03:29:17 AM 40.2550 115.8650 244° Southwest 349 402 22,200  Level FlightAware ADS-B
Fri 03:29:57 AM 40.2310 115.8000 244° Southwest 349 402 22,200  Level FlightAware ADS-B
Fri 03:30:37 AM 40.2070 115.7350 244° Southwest 349 402 22,200  Level FlightAware ADS-B
Fri 03:31:17 AM 40.1830 115.6710 244° Southwest 349 402 22,200 -38 Level FlightAware ADS-B
Fri 03:33:00 AM 39.9649 115.6335 188° South  Level Estimated
Fri 03:34:00 AM 39.8378 115.6118 187° South  Level Estimated
Fri 03:35:00 AM 39.7108 115.5901 187° South  Level Estimated
Fri 03:36:00 AM 39.5837 115.5686 187° South  Level Estimated
Fri 03:37:00 AM 39.4566 115.5471 187° South  Level Estimated
Fri 03:38:00 AM 39.3296 115.5257 187° South  Level Estimated
Fri 03:39:00 AM 39.2025 115.5043 187° South  Level Estimated
Fri 03:40:00 AM 39.0754 115.4831 187° South  Level Estimated
Fri 03:41:00 AM 38.9483 115.4619 187° South  Level Estimated
Fri 03:42:00 AM 38.8212 115.4408 187° South  Level Estimated
Fri 03:43:00 AM 38.6941 115.4198 187° South  Level Estimated
Fri 03:44:00 AM 38.5670 115.3988 187° South  Level Estimated
Fri 03:45:00 AM 38.4399 115.3779 187° South  Level Estimated
Fri 03:46:00 AM 38.3128 115.3571 187° South  Level Estimated
Fri 03:47:00 AM 38.1857 115.3364 187° South  Level Estimated
Fri 03:48:00 AM 38.0586 115.3157 187° South  Level Estimated
Fri 03:49:00 AM 37.9315 115.2951 187° South  Level Estimated
Fri 03:50:00 AM 37.8044 115.2746 187° South  Level Estimated
Fri 03:51:00 AM 37.6772 115.2542 187° South  Level Estimated
Fri 03:52:00 AM 37.5501 115.2338 187° South  Level Estimated
Fri 03:53:00 AM 37.4230 115.2135 187° South  Level Estimated
Fri 03:54:00 AM 37.2958 115.1932 187° South  Level Estimated
Fri 03:55:00 AM 37.1687 115.1731 187° South  Level Estimated
Fri 03:56:00 AM 37.0416 115.1530 187° South  Level Estimated
Fri 03:57:00 AM 36.9144 115.1329 187° South  Level Estimated
Fri 03:58:00 AM 36.7873 115.1130 187° South  Level Estimated
Fri 03:59:00 AM 36.6601 115.0931 187° South  Level Estimated
Fri 04:00:00 AM 36.5330 115.0732 187° South  Level Estimated
Fri 04:01:00 AM 36.4058 115.0535 187° South  Level Estimated
Fri 04:02:00 AM 36.2787 115.0337 187° South  Level Estimated
Fri 04:03:00 AM 36.1515 115.0141 187° South  Level Estimated
Fri 04:04:00 AM 36.0243 114.9945 187° South  Level Estimated
Fri 04:05:00 AM 35.8972 114.9750 187° South  Level Estimated
Fri 04:06:00 AM 35.7700 114.9556 187° South  Level Estimated
Fri 04:07:00 AM 35.6428 114.9362 187° South  Level Estimated
Fri 04:08:00 AM 35.5156 114.9168 187° South  Level Estimated
Fri 04:09:00 AM 35.3885 114.8976 187° South  Level Estimated
Fri 04:10:00 AM 35.2613 114.8783 187° South  Level Estimated
Fri 04:11:00 AM 35.1341 114.8592 187° South  Level Estimated
Fri 04:12:00 AM 35.0069 114.8401 187° South  Level Estimated
Fri 04:13:00 AM 34.8797 114.8211 187° South  Level Estimated
Fri 04:14:00 AM 34.7525 114.8021 187° South  Level Estimated
Fri 04:15:00 AM 34.6253 114.7832 187° South  Level Estimated
Fri 04:16:00 AM 34.4981 114.7643 187° South  Level Estimated
Fri 04:17:00 AM 34.3709 114.7455 187° South  Level Estimated
Fri 04:18:00 AM 34.2437 114.7268 187° South  Level Estimated
Fri 04:19:00 AM 34.1165 114.7081 187° South  Level Estimated
Fri 04:20:00 AM 33.9893 114.6895 187° South  Level Estimated
Fri 04:21:00 AM 33.8620 114.6709 187° South  Level Estimated
Fri 04:22:00 AM 33.7348 114.6524 187° South  Level Estimated
Fri 04:23:00 AM 33.6076 114.6339 187° South  Level Estimated
Fri 04:24:00 AM 33.4804 114.6155 187° South  Level Estimated
Fri 04:25:00 AM 33.3531 114.5972 187° South  Level Estimated
Fri 04:26:00 AM 33.2259 114.5789 187° South  Level Estimated
Fri 04:27:00 AM 33.0987 114.5606 187° South  Level Estimated
Fri 04:28:00 AM 32.9714 114.5424 187° South  Level Estimated
Fri 04:29:00 AM 32.8442 114.5243 187° South  Level Estimated
Fri 04:30:00 AM 32.7169 114.5062 187° South  Level Estimated
Fri 04:31:00 AM 32.5897 114.4882 187° South  Level Estimated
Fri 04:32:00 AM 32.4625 114.4702 187° South  Level Estimated
Fri 04:33:00 AM 32.3352 114.4522 187° South  Level Estimated
Fri 04:34:00 AM 32.2080 114.4343 187° South  Level Estimated
Fri 04:35:00 AM 32.0807 114.4165 187° South  Level Estimated
Fri 04:36:00 AM 31.9534 114.3987 187° South  Level Estimated
Fri 04:37:00 AM 31.8262 114.3810 187° South  Level Estimated
Fri 04:38:00 AM 31.6989 114.3633 187° South  Level Estimated
Fri 04:39:00 AM 31.5717 114.3456 187° South  Level Estimated
Fri 04:40:00 AM 31.4444 114.3281 187° South  Level Estimated
Fri 04:41:00 AM 31.3171 114.3105 187° South  Level Estimated
Fri 04:42:00 AM 31.1899 114.2930 187° South  Level Estimated
Fri 04:43:00 AM 31.0626 114.2756 187° South  Level Estimated
Fri 04:44:00 AM 30.9353 114.2582 187° South  Level Estimated
Fri 04:45:00 AM 30.8080 114.2408 187° South  Level Estimated
Fri 04:46:00 AM 30.6807 114.2235 187° South  Level Estimated
Fri 04:47:00 AM 30.5535 114.2062 187° South  Level Estimated
Fri 04:48:00 AM 30.4262 114.1890 187° South  Level Estimated
Fri 04:49:00 AM 30.2989 114.1718 187° South  Level Estimated
Fri 04:50:00 AM 30.1716 114.1547 187° South  Level Estimated
Fri 04:51:00 AM 30.0443 114.1376 187° South  Level Estimated
Fri 04:52:00 AM 29.9170 114.1206 187° South  Level Estimated
Fri 04:53:00 AM 29.7897 114.1036 187° South  Level Estimated
Fri 04:54:00 AM 29.6624 114.0866 187° South  Level Estimated
Fri 04:55:00 AM 29.5351 114.0697 187° South  Level Estimated
Fri 04:56:00 AM 29.4078 114.0528 187° South  Level Estimated
Fri 04:57:00 AM 29.2805 114.0360 187° South  Level Estimated
Fri 04:58:00 AM 29.1532 114.0192 187° South  Level Estimated
Fri 04:59:00 AM 29.0259 114.0025 187° South  Level Estimated
Fri 05:00:00 AM 28.8986 113.9858 187° South  Level Estimated
Fri 05:01:00 AM 28.7713 113.9691 187° South  Level Estimated
Fri 05:02:00 AM 28.6439 113.9525 187° South  Level Estimated
Fri 05:03:00 AM 28.5166 113.9359 187° South  Level Estimated
Fri 05:04:00 AM 28.3893 113.9194 187° South  Level Estimated
Fri 05:05:00 AM 28.2620 113.9029 187° South  Level Estimated
Fri 05:06:00 AM 28.1347 113.8864 187° South  Level Estimated
Fri 05:07:00 AM 28.0073 113.8700 186° South  Level Estimated
Fri 05:08:00 AM 27.8800 113.8536 186° South  Level Estimated
Fri 05:09:00 AM 27.7527 113.8372 186° South  Level Estimated
Fri 05:10:00 AM 27.6254 113.8209 186° South  Level Estimated
Fri 05:11:00 AM 27.4980 113.8047 186° South  Level Estimated
Fri 05:12:00 AM 27.3707 113.7884 186° South  Level Estimated
Fri 05:13:00 AM 27.2433 113.7722 186° South  Level Estimated
Fri 05:14:00 AM 27.1160 113.7561 186° South  Level Estimated
Fri 05:15:00 AM 26.9887 113.7400 186° South  Level Estimated
Fri 05:16:00 AM 26.8613 113.7239 186° South  Level Estimated
Fri 05:17:00 AM 26.7340 113.7078 186° South  Level Estimated
Fri 05:18:00 AM 26.6066 113.6918 186° South  Level Estimated
Fri 05:19:00 AM 26.4793 113.6758 186° South  Level Estimated
Fri 05:20:00 AM 26.3519 113.6599 186° South  Level Estimated
Fri 05:21:00 AM 26.2246 113.6440 186° South  Level Estimated
Fri 05:22:00 AM 26.0972 113.6281 186° South  Level Estimated
Fri 05:23:00 AM 25.9699 113.6123 186° South  Level Estimated
Fri 05:24:00 AM 25.8425 113.5965 186° South  Level Estimated
Fri 05:25:00 AM 25.7152 113.5807 186° South  Level Estimated
Fri 05:26:00 AM 25.5878 113.5650 186° South  Level Estimated
Fri 05:27:00 AM 25.4604 113.5493 186° South  Level Estimated
Fri 05:28:00 AM 25.3331 113.5336 186° South  Level Estimated
Fri 05:29:00 AM 25.2057 113.5180 186° South  Level Estimated
Fri 05:30:00 AM 25.0783 113.5023 186° South  Level Estimated
Fri 05:31:00 AM 24.9510 113.4868 186° South  Level Estimated
Fri 05:32:00 AM 24.8236 113.4712 186° South  Level Estimated
Fri 05:33:00 AM 24.6962 113.4557 186° South  Level Estimated
Fri 05:34:00 AM 24.5689 113.4402 186° South  Level Estimated
Fri 05:35:00 AM 24.4415 113.4248 186° South  Level Estimated
Fri 05:36:00 AM 24.3141 113.4094 186° South  Level Estimated
Fri 05:37:00 AM 24.1867 113.3940 186° South  Level Estimated
Fri 05:38:00 AM 24.0593 113.3787 186° South  Level Estimated
Fri 05:39:00 AM 23.9320 113.3633 186° South  Level Estimated
Fri 05:40:00 AM 23.8046 113.3481 186° South  Level Estimated
Fri 05:41:00 AM 23.6772 113.3328 186° South  Level Estimated
Fri 05:42:00 AM 23.5498 113.3176 186° South  Level Estimated
Fri 05:42:57 AM 24.3720 113.7190 186° South 343 395 17,200  Level FlightAware ADS-B
Fri 05:43:00 AM 23.4224 113.3024 186° South  Level Estimated
Fri 05:43:42 AM 24.3010 113.7070 189° South 338 389 16,100  Level FlightAware ADS-B
Fri 05:44:22 AM 24.2400 113.6960 189° South 332 382 15,100 -918 Descending FlightAware ADS-B
Fri 05:45:07 AM 24.1750 113.6860 188° South 298 343 14,800 -212 Descending FlightAware ADS-B
Fri 05:45:47 AM 24.1240 113.6790 187° South 270 311 14,800  Level FlightAware ADS-B
Fri 05:46:27 AM 24.0750 113.6720 187° South 268 308 14,800  Level FlightAware ADS-B
Fri 05:47:12 AM 24.0200 113.6650 187° South 265 305 14,800 -424 Level FlightAware ADS-B
Fri 05:47:52 AM 23.9700 113.6580 187° South 261 300 14,200 -776 Descending FlightAware ADS-B
Fri 05:48:37 AM 23.9200 113.6410 197° South 247 284 13,700 -764 Descending FlightAware ADS-B
Fri 05:48:47 AM 23.9150 113.6310 241° Southwest 240 276 13,500 -1,200 Descending FlightAware ADS-B
Fri 05:48:57 AM 23.9120 113.6190 255° West 235 270 13,300 -900 Descending FlightAware ADS-B
Fri 05:49:27 AM 23.9240 113.5870 292° West 235 270 12,900 -960 Descending FlightAware ADS-B
Fri 05:49:47 AM 23.9310 113.5650 289° West 231 266 12,500 -1,050 Descending FlightAware ADS-B
Fri 05:50:07 AM 23.9230 113.5440 247° West 234 269 12,200 -1,371 Descending FlightAware ADS-B
Fri 05:50:22 AM 23.9090 113.5340 213° Southwest 242 278 11,700 -2,160 Descending FlightAware ADS-B
Fri 05:50:32 AM 23.8990 113.5330 185° South 254 292 11,300 -1,964 Descending FlightAware ADS-B
Fri 05:51:17 AM 23.8450 113.5410 172° South 264 304 9,900 -1,457 Descending FlightAware ADS-B
Fri 05:51:42 AM 23.8140 113.5470 170° South 254 292 9,600 -764 Descending FlightAware ADS-B
Fri 05:52:12 AM 23.7790 113.5530 171° South 231 266 9,200 -764 Descending FlightAware ADS-B
Fri 05:52:37 AM 23.7550 113.5570 171° South 210 242 8,900 -982 Descending FlightAware ADS-B
Fri 05:53:07 AM 23.7270 113.5620 171° South 196 226 8,300 -1,400 Descending FlightAware ADS-B
Fri 05:53:37 AM 23.7010 113.5660 172° South 193 222 7,500 -1,309 Descending FlightAware ADS-B
Fri 05:54:02 AM 23.6770 113.5700 171° South 194 223 7,100 -436 Descending FlightAware ADS-B
Fri 05:54:32 AM 23.6540 113.5740 171° South 190 219 7,100  Level FlightAware ADS-B
Fri 05:55:02 AM 23.6350 113.5550 222° Southwest 177 204 7,100 -436 Level FlightAware ADS-B
Fri 05:55:27 AM 23.6420 113.5380 294° West 182 209 6,700 -1,050 Descending FlightAware ADS-B
Fri 05:55:42 AM 23.6530 113.5250 313° West 182 209 6,400 -800 Descending FlightAware ADS-B
Fri 05:56:12 AM 23.6700 113.5060 314° West 182 209 6,100 -327 Descending FlightAware ADS-B
Fri 05:56:37 AM 23.6840 113.4900 314° West 181 208 6,100  Level FlightAware ADS-B
Fri 05:57:07 AM 23.7010 113.4700 313° West 180 207 6,100 -343 Level FlightAware ADS-B
Fri 05:57:47 AM 23.7230 113.4450 314° West 177 204 5,700 -857 Descending FlightAware ADS-B
Fri 05:58:17 AM 23.7410 113.4240 313° West 179 206 5,100 -1,200 Descending FlightAware ADS-B
Fri 05:58:32 AM 23.7460 113.4120 294° West 175 201 4,800 -1,200 Descending FlightAware ADS-B
Fri 05:58:57 AM 23.7380 113.3940 244° Southwest 173 199 4,300 -1,050 Descending FlightAware ADS-B
Fri 05:59:12 AM 23.7250 113.3920 188° South 182 209 4,100 -343 Descending FlightAware ADS-B
Fri 05:59:32 AM 23.7080 113.3940 174° South 182 209 4,100  Level FlightAware ADS-B
Fri 05:59:52 AM 23.6910 113.3910 189° South 178 205 4,100  Level FlightAware ADS-B
Fri 06:00:22 AM 23.6680 113.3840 196° South 179 206 4,100 -300 Level FlightAware ADS-B
Fri 06:00:52 AM 23.6430 113.3780 192° South 178 205 3,800 -764 Descending FlightAware ADS-B
Fri 06:01:17 AM 23.6240 113.3720 196° South 178 205 3,400 -900 Descending FlightAware ADS-B
Fri 06:01:32 AM 23.6110 113.3690 192° South 180 207 3,200 -300 Descending FlightAware ADS-B
Fri 06:01:57 AM 23.5920 113.3640 194° South 179 206 3,200 109 Level FlightAware ADS-B
Fri 06:02:27 AM 23.5680 113.3570 195° South 177 204 3,300 -200 Climbing FlightAware ADS-B
Fri 06:02:57 AM 23.5450 113.3510 193° South 156 180 3,000 -764 Descending FlightAware ADS-B
Fri 06:03:22 AM 23.5290 113.3470 193° South 143 165 2,600 -764 Descending FlightAware ADS-B
Fri 06:03:52 AM 23.5100 113.3410 196° South 141 162 2,300 -686 Descending FlightAware ADS-B
Fri 06:03:57 AM 23.5080 113.3410 180° South 141 162 2,200 -1,200 Descending FlightAware ADS-B
Fri 06:06:00 AM 23.3924 113.2988 199° South  Level Estimated

Login

Don't have an account? Register now (free) for customized features, flight alerts, and more!